METAR Data
IDs: Format: Raw Decoded Include TAF

Data at: 0204 UTC 29 May 2022

KCWF 290146Z 14005KT 10SM SKC 24/17 A2985
KCWF 290053Z 12006KT 10SM SKC 26/17 A2985
KCWF 282347Z 11007KT 10SM SKC 29/16 A2984
KCWF 282251Z 12008KT 10SM SKC 31/16 A2985
KCWF 282155Z 00000KT 10SM SKC 31/15 A2986
KCWF 282055Z 00000KT 10SM SKC 31/15 A2989
KCWF 281947Z VRB05KT 10SM SKC 30/15 A2991
KCWF 281854Z 00000KT 10SM SKC 29/14 A2993
KCWF 281745Z 17005KT 10SM SKC 28/13 A2995
KCWF 281655Z 02005KT 10SM SKC 28/13 A2996
KCWF 281555Z 13006KT 10SM SKC 27/12 A2998
KCWF 281455Z 10006KT 10SM SKC 26/14 A2998
KCWF 281353Z 09008KT 10SM SKC 24/16 A2998
KCWF 281246Z 00000KT 10SM SKC 21/16 A2997
KCWF 281155Z 00000KT 10SM SKC 18/14 A2996
KCWF 281100Z 00000KT 10SM SKC 18/14 A2994
KCWF 281035Z AUTO 06003KT 10SM CLR 17/14 A2993 RMK AO2 T01750139
KCWF 281015Z AUTO 04003KT 10SM CLR 17/13 A2994 RMK AO2 T01720133
KCWF 280955Z AUTO 08003KT 10SM CLR 18/13 A2993 RMK AO2 T01760131
KCWF 280935Z AUTO 07003KT 10SM CLR 17/14 A2994 RMK AO2 T01730136
KCWF 280915Z AUTO 00000KT 10SM CLR 17/13 A2994 RMK AO2 T01750131
KCWF 280855Z AUTO 00000KT 10SM CLR 18/13 A2994 RMK AO2 T01760133
KCWF 280835Z AUTO 00000KT 10SM CLR 17/13 A2994 RMK AO2 T01680129
KCWF 280815Z AUTO 00000KT 10SM CLR 17/13 A2994 RMK AO2 T01720130
KCWF 280755Z AUTO 00000KT 10SM CLR 19/13 A2993 RMK AO2 T01850129
KCWF 280735Z AUTO 00000KT 10SM CLR 18/13 A2993 RMK AO2 T01840127
KCWF 280715Z AUTO 00000KT 10SM CLR 19/13 A2993 RMK AO2 T01880129
KCWF 280655Z AUTO 00000KT 10SM CLR 18/13 A2994 RMK AO2 T01790126
KCWF 280635Z AUTO 16004KT 10SM CLR 16/13 A2994 RMK AO2 T01610127
KCWF 280615Z AUTO 14004KT 10SM CLR 16/12 A2994 RMK AO2 T01600122
KCWF 280555Z AUTO 04004KT 10SM CLR 21/12 A2995 RMK AO2 T02120116 10305 20211
KCWF 280535Z AUTO 04004KT 10SM CLR 21/12 A2995 RMK AO2 T02150118
KCWF 280515Z AUTO 04007KT 10SM CLR 22/12 A2995 RMK AO2 T02170120
KCWF 280455Z AUTO 04007KT 10SM CLR 22/12 A2995 RMK AO2 T02230118
KCWF 280435Z AUTO 02005KT 10SM CLR 22/11 A2995 RMK AO2 T02250115
KCWF 280415Z AUTO 04005KT 10SM CLR 23/11 A2995 RMK AO2 T02260114
KCWF 280355Z AUTO 01006KT 10SM CLR 23/12 A2995 RMK AO2 T02320115
KCWF 280335Z AUTO 01006KT 10SM CLR 24/12 A2994 RMK AO2 T02360116
KCWF 280315Z AUTO 02008KT 10SM CLR 24/12 A2994 RMK AO2 T02390121
KCWF 280255Z 03005KT 10SM SKC 24/13 A2994 RMK LAST
KCWF 280153Z 03005KT 10SM SKC 26/13 A2992
KCWF 280055Z 36006KT 10SM SKC 28/12 A2991
KCWF 272347Z 34010KT 10SM SKC 31/12 A2990
KCWF 272252Z 35012KT 10SM SKC 32/13 A2990
KCWF 272151Z 33017KT 10SM SCT050 33/13 A2991
KCWF 272046Z 35014KT 10SM SCT050 33/14 A2993
KCWF 271945Z 33011G17KT 10SM SCT060 32/14 A2995
KCWF 271850Z 32011G16KT 10SM SKC 32/14 A2997
KCWF 271745Z 33010G16KT 10SM SKC 32/14 A2999
KCWF 271645Z 31012KT 10SM SKC 31/16 A3001
KCWF 271551Z 30011KT 10SM SKC 29/18 A3002
KCWF 271445Z 31011G16KT 10SM SKC 27/19 A3002